Disclaimer

Please do not use the information listed here in-flight or in-navigation, as they are not provided to us by the airports but are provided by volunteers, so they might be outdated.

Search


Regions


Airport information page

Radio informations:
PIERREFONDS INFO - 122.4 MHz

Airport informations:
Latitude: 21° 19' 12.14" S
Longitude: 055° 25' 24.89" E
Elevation: 56 feet - 17 meters
Operating hours: Remarks
Operating agency: Military-civil joint use airport
Timezone: UTC+4
Fuel: N/A

Runway information:
15/33 - 6070 x 98 feet< - >1850 x 30 meters

Recent METARs:
FMEP 160130Z AUTO 04006KT CAVOK 24/17 Q1016
FMEP 160200Z AUTO 06006KT CAVOK 24/17 Q1016
FMEP 160230Z AUTO 03003KT 360V060 CAVOK 25/17 Q1016 BECMG 14022G32KT

Airport on the map: